Darstellungsparameter: Aktuell verwendete Einstellungen:
Skalierung der Graphiken ... ?
xyx+y,   Skalierungsfaktor:      Skalierung: Modus: x, Faktor: 1
Darstellungszeitraum ... ?
Vom - - bis: - -   Zeitraum: 07.05.2021 - 09.05.2021
Min/Max/Avg-Anzeige ... ?
Zeige MMA aktuell
Zeige MMA Monat
Zeige MMA alles
Zeige --A aktuell
Zeige --A Monat
Zeige --A alles
Keine MMA-Anzeige
MMA:
Average (ber die Originaldaten)
MMA-Basis: 23.02.2003 - 23.04.2020
Quicknavigation für Darstellung... ?
Tage:      1T, 2T, 3T, 5T -1T -2T -3T -5T +1T +2T +3T +5T
Wochen: 1W, 2W, 3W -1W -2W -3W +1W +2W +3W
Monate: 1M, 3M, 6M -1M -3M -6M +1M +3M +6M
Jahre:    1J, 3J, 5J, 10J -1J -3J -5J -10J +1J +3J +5J +10J
Nutze für die Darstellung ... ?
Originaldaten oder Mittelwerte auf ...
Stundenbasis Tagesbasis Wochenbasis
Monatsbasis Jahresbasis      Datenbasis: Original-Daten
Darstellen als:
Statistik (Auto) Statistik J:M      Darstellung:
Zur Graphik,    zurück zur Übersicht aller Sensoren.
 
Tabellarische Datenbersicht: ?
 
Sensor: Nr:Datum:Temp:Abs-Feuchte:Windchill:Wind:
Aussen-T/F 1 07-05-2021 00:00:00 6.5 C 7.12 g/m*3 6.5 C 3.2 km/h
2 07-05-2021 00:05:00 6.5 C 7.12 g/m*3 6.5 C 0 km/h
3 07-05-2021 00:10:00 6.5 C 7.12 g/m*3 6.5 C 0 km/h
4 07-05-2021 00:15:00 6.5 C 7.12 g/m*3 6.5 C 0 km/h
5 07-05-2021 00:20:00 6.6 C 7.17 g/m*3 6.6 C 0 km/h
6 07-05-2021 00:25:00 6.6 C 7.17 g/m*3 6.6 C 0 km/h
7 07-05-2021 00:30:00 6.6 C 7.17 g/m*3 6.6 C 0 km/h
8 07-05-2021 00:35:00 6.6 C 7.17 g/m*3 6.6 C 0 km/h
9 07-05-2021 00:40:00 6.6 C 7.17 g/m*3 6.6 C 3.2 km/h
10 07-05-2021 00:45:00 6.6 C 7.17 g/m*3 6.6 C 1.6 km/h
11 07-05-2021 00:50:00 6.6 C 7.17 g/m*3 6.6 C 1.6 km/h
12 07-05-2021 00:55:00 6.6 C 7.17 g/m*3 6.6 C 3.2 km/h
13 07-05-2021 01:00:00 6.6 C 7.17 g/m*3 6.6 C 0 km/h
14 07-05-2021 01:05:00 6.6 C 7.17 g/m*3 6.6 C 0 km/h
15 07-05-2021 01:10:00 6.6 C 7.17 g/m*3 6.6 C 0 km/h
16 07-05-2021 01:15:00 6.6 C 7.17 g/m*3 6.6 C 3.2 km/h
17 07-05-2021 01:20:00 6.6 C 7.17 g/m*3 6.6 C 0 km/h
18 07-05-2021 01:25:00 6.6 C 7.17 g/m*3 6.6 C 3.2 km/h
19 07-05-2021 01:30:00 6.6 C 7.17 g/m*3 6.6 C 0 km/h
20 07-05-2021 01:35:00 6.6 C 7.17 g/m*3 6.6 C 0 km/h
21 07-05-2021 01:40:00 6.6 C 7.17 g/m*3 6.6 C 1.6 km/h
22 07-05-2021 01:45:00 6.6 C 7.17 g/m*3 6.6 C 0 km/h
23 07-05-2021 01:50:00 6.5 C 7.12 g/m*3 6.5 C 1.6 km/h
24 07-05-2021 01:55:00 6.5 C 7.12 g/m*3 6.5 C 0 km/h
25 07-05-2021 02:00:00 6.5 C 7.12 g/m*3 6.5 C 0 km/h
Sensor: Nr:Datum:Temp:Abs-Feuchte:Windchill:Wind:
Aussen-T/F 26 07-05-2021 02:05:00 6.5 C 7.12 g/m*3 6.5 C 4.8 km/h
27 07-05-2021 02:10:00 6.4 C 7.08 g/m*3 6.4 C 4.8 km/h
28 07-05-2021 02:15:00 6.4 C 7.08 g/m*3 6.4 C 1.6 km/h
29 07-05-2021 02:20:00 6.4 C 7.08 g/m*3 6.4 C 1.6 km/h
30 07-05-2021 02:25:00 6.4 C 7.08 g/m*3 6.4 C 1.6 km/h
31 07-05-2021 02:30:00 6.4 C 7.08 g/m*3 6.4 C 3.2 km/h
32 07-05-2021 02:35:00 6.4 C 7.08 g/m*3 6.4 C 1.6 km/h
33 07-05-2021 02:40:00 6.4 C 7.08 g/m*3 6.4 C 3.2 km/h
34 07-05-2021 02:45:00 6.4 C 7.08 g/m*3 3.55 C 14.5 km/h
35 07-05-2021 02:50:00 6.3 C 7.03 g/m*3 4.64 C 8.1 km/h
36 07-05-2021 02:55:00 6.1 C 6.87 g/m*3 4.4 C 8.1 km/h
37 07-05-2021 03:00:00 6.1 C 6.87 g/m*3 4.04 C 9.7 km/h
38 07-05-2021 03:05:00 6 C 6.82 g/m*3 4.28 C 8.1 km/h
39 07-05-2021 03:10:00 5.9 C 6.78 g/m*3 4.17 C 8.1 km/h
40 07-05-2021 03:15:00 5.9 C 6.78 g/m*3 5.9 C 4.8 km/h
41 07-05-2021 03:20:00 5.9 C 6.78 g/m*3 5.9 C 1.6 km/h
42 07-05-2021 03:25:00 5.9 C 6.78 g/m*3 5.9 C 0 km/h
43 07-05-2021 03:30:00 5.8 C 6.73 g/m*3 5.8 C 1.6 km/h
44 07-05-2021 03:35:00 5.8 C 6.73 g/m*3 5.8 C 1.6 km/h
45 07-05-2021 03:40:00 5.7 C 6.69 g/m*3 5.7 C 3.2 km/h
46 07-05-2021 03:45:00 5.7 C 6.69 g/m*3 5.7 C 4.8 km/h
47 07-05-2021 03:50:00 5.5 C 6.6 g/m*3 5.5 C 4.8 km/h
48 07-05-2021 03:55:00 5.4 C 6.56 g/m*3 5.4 C 1.6 km/h
49 07-05-2021 04:00:00 5.3 C 6.52 g/m*3 5.3 C 3.2 km/h
50 07-05-2021 04:05:00 5.1 C 6.43 g/m*3 5.1 C 3.2 km/h
Sensor: Nr:Datum:Temp:Abs-Feuchte:Windchill:Wind:
Aussen-T/F 51 07-05-2021 04:10:00 4.9 C 6.35 g/m*3 4.9 C 1.6 km/h
52 07-05-2021 04:15:00 4.7 C 6.26 g/m*3 4.7 C 4.8 km/h
53 07-05-2021 04:20:00 4.6 C 6.22 g/m*3 4.6 C 3.2 km/h
54 07-05-2021 04:25:00 4.5 C 6.18 g/m*3 4.5 C 3.2 km/h
55 07-05-2021 04:30:00 4.4 C 6.14 g/m*3 4.4 C 0 km/h
56 07-05-2021 04:35:00 4.4 C 6.14 g/m*3 4.4 C 0 km/h
57 07-05-2021 04:40:00 4.4 C 6.14 g/m*3 4.4 C 0 km/h
58 07-05-2021 04:45:00 4.4 C 6.14 g/m*3 4.4 C 0 km/h
59 07-05-2021 04:50:00 4.4 C 6.2 g/m*3 4.4 C 0 km/h
60 07-05-2021 04:55:00 4.4 C 6.2 g/m*3 4.4 C 1.6 km/h
61 07-05-2021 05:00:00 4.5 C 6.24 g/m*3 4.5 C 1.6 km/h
62 07-05-2021 05:05:00 4.6 C 6.29 g/m*3 4.6 C 4.8 km/h
63 07-05-2021 05:10:00 4.7 C 6.33 g/m*3 4.7 C 4.8 km/h
64 07-05-2021 05:15:00 4.8 C 6.37 g/m*3 4.8 C 4.8 km/h
65 07-05-2021 05:20:00 4.8 C 6.37 g/m*3 4.8 C 0 km/h
66 07-05-2021 05:25:00 4.9 C 6.48 g/m*3 4.9 C 3.2 km/h
67 07-05-2021 05:30:00 4.9 C 6.41 g/m*3 4.9 C 3.2 km/h
68 07-05-2021 05:35:00 4.9 C 6.41 g/m*3 4.9 C 0 km/h
69 07-05-2021 05:40:00 4.8 C 6.37 g/m*3 4.8 C 0 km/h
70 07-05-2021 05:45:00 4.7 C 6.33 g/m*3 4.7 C 3.2 km/h
71 07-05-2021 05:50:00 4.6 C 6.29 g/m*3 4.6 C 1.6 km/h
72 07-05-2021 05:55:00 4.4 C 6.2 g/m*3 4.4 C 3.2 km/h
73 07-05-2021 06:00:00 4.3 C 6.16 g/m*3 4.3 C 1.6 km/h
74 07-05-2021 06:05:00 4.2 C 6.12 g/m*3 4.2 C 4.8 km/h
75 07-05-2021 06:10:00 4.1 C 6.08 g/m*3 4.1 C 3.2 km/h
Sensor: Nr:Datum:Temp:Abs-Feuchte:Windchill:Wind:
Aussen-T/F 76 07-05-2021 06:15:00 3.9 C 6 g/m*3 3.9 C 3.2 km/h
77 07-05-2021 06:20:00 3.8 C 5.96 g/m*3 3.8 C 3.2 km/h
78 07-05-2021 06:25:00 3.8 C 5.96 g/m*3 3.8 C 3.2 km/h
79 07-05-2021 06:30:00 3.7 C 5.92 g/m*3 3.7 C 3.2 km/h
80 07-05-2021 06:35:00 3.7 C 5.92 g/m*3 2.09 C 6.4 km/h
81 07-05-2021 06:40:00 3.6 C 5.88 g/m*3 3.6 C 3.2 km/h
82 07-05-2021 06:45:00 3.6 C 5.88 g/m*3 3.6 C 0 km/h
83 07-05-2021 06:50:00 3.6 C 5.88 g/m*3 3.6 C 1.6 km/h
84 07-05-2021 06:55:00 3.6 C 5.88 g/m*3 3.6 C 0 km/h
85 07-05-2021 07:00:00 3.5 C 5.84 g/m*3 3.5 C 0 km/h
86 07-05-2021 07:05:00 3.5 C 5.84 g/m*3 3.5 C 0 km/h
87 07-05-2021 07:10:00 3.5 C 5.84 g/m*3 3.5 C 1.6 km/h
88 07-05-2021 07:15:00 3.6 C 5.88 g/m*3 3.6 C 0 km/h
89 07-05-2021 07:20:00 3.6 C 5.88 g/m*3 3.6 C 1.6 km/h
90 07-05-2021 07:25:00 3.6 C 5.88 g/m*3 3.6 C 3.2 km/h
91 07-05-2021 07:30:00 3.6 C 5.88 g/m*3 3.6 C 1.6 km/h
92 07-05-2021 07:35:00 3.7 C 5.92 g/m*3 3.7 C 1.6 km/h
93 07-05-2021 07:40:00 3.8 C 6.02 g/m*3 2.21 C 6.4 km/h
94 07-05-2021 07:45:00 3.9 C 6.06 g/m*3 2.32 C 6.4 km/h
95 07-05-2021 07:50:00 4.1 C 6.14 g/m*3 4.1 C 3.2 km/h
96 07-05-2021 07:55:00 4.1 C 6.14 g/m*3 4.1 C 4.8 km/h
97 07-05-2021 08:00:00 4.2 C 6.19 g/m*3 4.2 C 4.8 km/h
98 07-05-2021 08:05:00 4.2 C 6.19 g/m*3 4.2 C 4.8 km/h
99 07-05-2021 08:10:00 4.3 C 6.23 g/m*3 2.78 C 6.4 km/h
100 07-05-2021 08:15:00 4.4 C 6.27 g/m*3 2.9 C 6.4 km/h
Sensor: Nr:Datum:Temp:Abs-Feuchte:Windchill:Wind:
Aussen-T/F 101 07-05-2021 08:20:00 4.4 C 6.2 g/m*3 4.4 C 0 km/h
102 07-05-2021 08:25:00 4.5 C 6.31 g/m*3 4.5 C 4.8 km/h
103 07-05-2021 08:30:00 4.6 C 6.35 g/m*3 2.64 C 8.1 km/h
104 07-05-2021 08:35:00 4.7 C 6.39 g/m*3 3.25 C 6.4 km/h
105 07-05-2021 08:40:00 4.8 C 6.44 g/m*3 3.36 C 6.4 km/h
106 07-05-2021 08:45:00 4.9 C 6.48 g/m*3 3.48 C 6.4 km/h
107 07-05-2021 08:50:00 5.1 C 6.5 g/m*3 3.71 C 6.4 km/h
108 07-05-2021 08:55:00 5.2 C 6.54 g/m*3 2.96 C 9.7 km/h
109 07-05-2021 09:00:00 5.2 C 6.54 g/m*3 2.63 C 11.3 km/h
110 07-05-2021 09:05:00 5.3 C 6.52 g/m*3 3.46 C 8.1 km/h
111 07-05-2021 09:10:00 5.4 C 6.49 g/m*3 4.06 C 6.4 km/h
112 07-05-2021 09:15:00 5.7 C 6.62 g/m*3 3.23 C 11.3 km/h
113 07-05-2021 09:20:00 5.9 C 6.63 g/m*3 3.8 C 9.7 km/h
114 07-05-2021 09:25:00 6.2 C 6.69 g/m*3 3.56 C 12.9 km/h
115 07-05-2021 09:30:00 6.4 C 6.71 g/m*3 4.39 C 9.7 km/h
116 07-05-2021 09:35:00 6.6 C 6.79 g/m*3 5.44 C 6.4 km/h
117 07-05-2021 09:40:00 6.8 C 6.81 g/m*3 6.8 C 4.8 km/h
118 07-05-2021 09:45:00 7.1 C 6.86 g/m*3 4.65 C 12.9 km/h
119 07-05-2021 09:50:00 7.2 C 6.99 g/m*3 7.2 C 4.8 km/h
120 07-05-2021 09:55:00 7.4 C 6.92 g/m*3 5.93 C 8.1 km/h
121 07-05-2021 10:00:00 7.5 C 6.88 g/m*3 5.41 C 11.3 km/h
122 07-05-2021 10:05:00 7.6 C 6.77 g/m*3 5.53 C 11.3 km/h
123 07-05-2021 10:10:00 7.8 C 6.86 g/m*3 5.77 C 11.3 km/h
124 07-05-2021 10:15:00 8 C 6.86 g/m*3 5.75 C 12.9 km/h
125 07-05-2021 10:20:00 8.2 C 6.87 g/m*3 5.99 C 12.9 km/h
Sensor: Nr:Datum:Temp:Abs-Feuchte:Windchill:Wind:
Aussen-T/F 126 07-05-2021 10:25:00 8.3 C 6.74 g/m*3 6.37 C 11.3 km/h
127 07-05-2021 10:30:00 8.3 C 6.74 g/m*3 6.12 C 12.9 km/h
128 07-05-2021 10:35:00 8.1 C 6.66 g/m*3 4.89 C 20.9 km/h
129 07-05-2021 10:40:00 7.4 C 6.44 g/m*3 4.78 C 14.5 km/h
130 07-05-2021 10:45:00 6.8 C 6.42 g/m*3 4.29 C 12.9 km/h
131 07-05-2021 10:50:00 6.4 C 6.41 g/m*3 5.21 C 6.4 km/h
132 07-05-2021 10:55:00 6.3 C 6.51 g/m*3 4.27 C 9.7 km/h
133 07-05-2021 11:00:00 6.3 C 6.51 g/m*3 4.27 C 9.7 km/h
134 07-05-2021 11:05:00 6.4 C 6.63 g/m*3 4.39 C 9.7 km/h
135 07-05-2021 11:10:00 6.7 C 6.84 g/m*3 4.44 C 11.3 km/h
136 07-05-2021 11:15:00 6.9 C 6.7 g/m*3 3.94 C 16.1 km/h
137 07-05-2021 11:20:00 6.9 C 6.54 g/m*3 3.94 C 16.1 km/h
138 07-05-2021 11:25:00 6.9 C 6.47 g/m*3 4.41 C 12.9 km/h
139 07-05-2021 11:30:00 7 C 6.43 g/m*3 3.67 C 19.3 km/h
140 07-05-2021 11:35:00 7.1 C 6.47 g/m*3 5.23 C 9.7 km/h
141 07-05-2021 11:40:00 7.2 C 6.52 g/m*3 4.77 C 12.9 km/h
142 07-05-2021 11:45:00 7.2 C 6.44 g/m*3 5.04 C 11.3 km/h
143 07-05-2021 11:50:00 7.2 C 6.36 g/m*3 4.53 C 14.5 km/h
144 07-05-2021 11:55:00 7.4 C 6.44 g/m*3 4.78 C 14.5 km/h
145 07-05-2021 12:00:00 7.5 C 6.32 g/m*3 4.3 C 19.3 km/h
146 07-05-2021 12:05:00 7.4 C 6.28 g/m*3 5.28 C 11.3 km/h
147 07-05-2021 12:10:00 7.4 C 6.28 g/m*3 5.58 C 9.7 km/h
148 07-05-2021 12:15:00 7.4 C 6.36 g/m*3 5.28 C 11.3 km/h
149 07-05-2021 12:20:00 7.4 C 6.28 g/m*3 5.28 C 11.3 km/h
150 07-05-2021 12:25:00 7.4 C 6.44 g/m*3 3.68 C 24.1 km/h
Sensor: Nr:Datum:Temp:Abs-Feuchte:Windchill:Wind:
Aussen-T/F 151 07-05-2021 12:30:00 7.4 C 6.36 g/m*3 3.68 C 24.1 km/h
152 07-05-2021 12:35:00 7.4 C 6.36 g/m*3 5.02 C 12.9 km/h
153 07-05-2021 12:40:00 7.4 C 6.44 g/m*3 4.78 C 14.5 km/h
154 07-05-2021 12:45:00 7.3 C 6.24 g/m*3 4.05 C 19.3 km/h
155 07-05-2021 12:50:00 7.3 C 6.4 g/m*3 3.13 C 29 km/h
156 07-05-2021 12:55:00 7.2 C 6.36 g/m*3 3 C 29 km/h
157 07-05-2021 13:00:00 7.3 C 6.32 g/m*3 5.47 C 9.7 km/h
158 07-05-2021 13:05:00 7.3 C 6.32 g/m*3 6.25 C 6.4 km/h
159 07-05-2021 13:10:00 7.3 C 6.24 g/m*3 3.87 C 20.9 km/h
160 07-05-2021 13:15:00 7.2 C 6.12 g/m*3 4.31 C 16.1 km/h
161 07-05-2021 13:20:00 7.2 C 6.2 g/m*3 5.04 C 11.3 km/h
162 07-05-2021 13:25:00 7.2 C 6.2 g/m*3 4.77 C 12.9 km/h
163 07-05-2021 13:30:00 7.2 C 6.28 g/m*3 4.77 C 12.9 km/h
164 07-05-2021 13:35:00 7.3 C 6.32 g/m*3 5.16 C 11.3 km/h
165 07-05-2021 13:40:00 7.5 C 6.24 g/m*3 4.9 C 14.5 km/h
166 07-05-2021 13:45:00 7.6 C 6.2 g/m*3 4.81 C 16.1 km/h
167 07-05-2021 13:50:00 7.7 C 6.08 g/m*3 5.38 C 12.9 km/h
168 07-05-2021 13:55:00 7.7 C 6 g/m*3 5.15 C 14.5 km/h
169 07-05-2021 14:00:00 7.8 C 6.04 g/m*3 6.06 C 9.7 km/h
170 07-05-2021 14:05:00 8.1 C 6.16 g/m*3 5.23 C 17.7 km/h
171 07-05-2021 14:10:00 8.4 C 6.11 g/m*3 6.24 C 12.9 km/h
172 07-05-2021 14:15:00 8.5 C 6.06 g/m*3 6.36 C 12.9 km/h
173 07-05-2021 14:20:00 8.6 C 6.1 g/m*3 6.25 C 14.5 km/h
174 07-05-2021 14:25:00 8.7 C 5.97 g/m*3 6.17 C 16.1 km/h
175 07-05-2021 14:30:00 8.9 C 5.96 g/m*3 6.85 C 12.9 km/h
Sensor: Nr:Datum:Temp:Abs-Feuchte:Windchill:Wind:
Aussen-T/F 176 07-05-2021 14:35:00 9.2 C 5.8 g/m*3 6.79 C 16.1 km/h
177 07-05-2021 14:40:00 9.5 C 6.01 g/m*3 7.36 C 14.5 km/h
178 07-05-2021 14:45:00 9.7 C 5.99 g/m*3 7.23 C 17.7 km/h
179 07-05-2021 14:50:00 9.7 C 5.9 g/m*3 7.82 C 12.9 km/h
180 07-05-2021 14:55:00 9.5 C 5.92 g/m*3 7.36 C 14.5 km/h
181 07-05-2021 15:00:00 9.4 C 6.06 g/m*3 7.7 C 11.3 km/h
182 07-05-2021 15:05:00 9.5 C 6.1 g/m*3 7.58 C 12.9 km/h
183 07-05-2021 15:10:00 9.5 C 6.01 g/m*3 8.09 C 9.7 km/h
184 07-05-2021 15:15:00 9.5 C 6.01 g/m*3 7.58 C 12.9 km/h
185 07-05-2021 15:20:00 9.6 C 5.59 g/m*3 7.7 C 12.9 km/h
186 07-05-2021 15:25:00 9.7 C 5.81 g/m*3 7.23 C 17.7 km/h
187 07-05-2021 15:30:00 9.8 C 5.85 g/m*3 7.04 C 20.9 km/h
188 07-05-2021 15:35:00 9.9 C 5.79 g/m*3 7.85 C 14.5 km/h
189 07-05-2021 15:40:00 10.1 C 5.67 g/m*3 8.54 C 11.3 km/h
190 07-05-2021 15:45:00 10.2 C 5.71 g/m*3 9.22 C 8.1 km/h
191 07-05-2021 15:50:00 10.6 C 6.05 g/m*3 8.36 C 17.7 km/h
192 07-05-2021 15:55:00 11.1 C 5.84 g/m*3 11.1 C 12.9 km/h
193 07-05-2021 16:00:00 11.6 C 5.61 g/m*3 11.6 C 12.9 km/h
194 07-05-2021 16:05:00 11.9 C 5.61 g/m*3 11.9 C 14.5 km/h
195 07-05-2021 16:10:00 12.2 C 5.72 g/m*3 12.2 C 17.7 km/h
196 07-05-2021 16:15:00 12.4 C 5.57 g/m*3 12.4 C 14.5 km/h
197 07-05-2021 16:20:00 12.6 C 5.31 g/m*3 12.6 C 12.9 km/h
198 07-05-2021 16:25:00 12.9 C 5.75 g/m*3 12.9 C 16.1 km/h
199 07-05-2021 16:30:00 13.1 C 5.36 g/m*3 13.1 C 14.5 km/h
200 07-05-2021 16:35:00 13.2 C 5.4 g/m*3 13.2 C 12.9 km/h
Sensor: Nr:Datum:Temp:Abs-Feuchte:Windchill:Wind:
Aussen-T/F 201 07-05-2021 16:40:00 13.3 C 5.55 g/m*3 13.3 C 11.3 km/h
202 07-05-2021 16:45:00 13.5 C 5.26 g/m*3 13.5 C 9.7 km/h
203 07-05-2021 16:50:00 13.3 C 5.55 g/m*3 13.3 C 11.3 km/h
204 07-05-2021 16:55:00 13.3 C 5.55 g/m*3 13.3 C 9.7 km/h
205 07-05-2021 17:00:00 13.2 C 5.17 g/m*3 13.2 C 16.1 km/h
206 07-05-2021 17:05:00 13.1 C 5.48 g/m*3 13.1 C 11.3 km/h
207 07-05-2021 17:10:00 13.3 C 5.43 g/m*3 13.3 C 8.1 km/h
208 07-05-2021 17:15:00 13.5 C 5.61 g/m*3 13.5 C 11.3 km/h
209 07-05-2021 17:20:00 13.5 C 5.5 g/m*3 13.5 C 3.2 km/h
210 07-05-2021 17:25:00 13.4 C 5.46 g/m*3 13.4 C 12.9 km/h
211 07-05-2021 17:30:00 13.7 C 5.92 g/m*3 13.7 C 9.7 km/h
212 07-05-2021 17:35:00 13.9 C 5.75 g/m*3 13.9 C 8.1 km/h
213 07-05-2021 17:40:00 13.6 C 5.18 g/m*3 13.6 C 12.9 km/h
214 07-05-2021 17:45:00 13.3 C 5.43 g/m*3 13.3 C 11.3 km/h
215 07-05-2021 17:50:00 13.3 C 5.43 g/m*3 13.3 C 11.3 km/h
216 07-05-2021 17:55:00 13.2 C 5.4 g/m*3 13.2 C 12.9 km/h
217 07-05-2021 18:00:00 13.1 C 5.36 g/m*3 13.1 C 12.9 km/h
218 07-05-2021 18:05:00 13.2 C 5.74 g/m*3 13.2 C 11.3 km/h
219 07-05-2021 18:10:00 13.3 C 5.55 g/m*3 13.3 C 8.1 km/h
220 07-05-2021 18:15:00 13.3 C 5.43 g/m*3 13.3 C 9.7 km/h
221 07-05-2021 18:20:00 13.4 C 5.7 g/m*3 13.4 C 12.9 km/h
222 07-05-2021 18:25:00 13.5 C 5.5 g/m*3 13.5 C 8.1 km/h
223 07-05-2021 18:30:00 13.3 C 5.43 g/m*3 13.3 C 6.4 km/h
224 07-05-2021 18:35:00 13.2 C 5.74 g/m*3 13.2 C 3.2 km/h
225 07-05-2021 18:40:00 13.1 C 5.48 g/m*3 13.1 C 9.7 km/h
Sensor: Nr:Datum:Temp:Abs-Feuchte:Windchill:Wind:
Aussen-T/F 226 07-05-2021 18:45:00 12.9 C 5.41 g/m*3 12.9 C 6.4 km/h
227 07-05-2021 18:50:00 12.9 C 5.41 g/m*3 12.9 C 3.2 km/h
228 07-05-2021 18:55:00 12.9 C 5.41 g/m*3 12.9 C 8.1 km/h
229 07-05-2021 19:00:00 12.6 C 5.42 g/m*3 12.6 C 8.1 km/h
230 07-05-2021 19:05:00 12.6 C 5.53 g/m*3 12.6 C 4.8 km/h
231 07-05-2021 19:10:00 12.7 C 5.45 g/m*3 12.7 C 4.8 km/h
232 07-05-2021 19:15:00 12.7 C 5.45 g/m*3 12.7 C 6.4 km/h
233 07-05-2021 19:20:00 12.5 C 5.28 g/m*3 12.5 C 6.4 km/h
234 07-05-2021 19:25:00 12.2 C 5.5 g/m*3 12.2 C 3.2 km/h
235 07-05-2021 19:30:00 12 C 5.44 g/m*3 12 C 4.8 km/h
236 07-05-2021 19:35:00 12 C 5.44 g/m*3 12 C 1.6 km/h
237 07-05-2021 19:40:00 11.9 C 5.3 g/m*3 11.9 C 3.2 km/h
238 07-05-2021 19:45:00 12 C 5.54 g/m*3 12 C 1.6 km/h
239 07-05-2021 19:50:00 12 C 5.33 g/m*3 12 C 1.6 km/h
240 07-05-2021 19:55:00 11.9 C 5.3 g/m*3 11.9 C 1.6 km/h
241 07-05-2021 20:00:00 12 C 5.33 g/m*3 12 C 0 km/h
242 07-05-2021 20:05:00 12 C 5.33 g/m*3 12 C 0 km/h
243 07-05-2021 20:10:00 11.8 C 5.26 g/m*3 11.8 C 0 km/h
244 07-05-2021 20:15:00 11.8 C 6.21 g/m*3 11.8 C 0 km/h
245 07-05-2021 20:20:00 11.6 C 6.44 g/m*3 11.6 C 4.8 km/h
246 07-05-2021 20:25:00 11.3 C 6.63 g/m*3 11.3 C 4.8 km/h
247 07-05-2021 20:30:00 10.8 C 6.42 g/m*3 10.8 C 4.8 km/h
248 07-05-2021 20:35:00 10.3 C 6.32 g/m*3 9.72 C 6.4 km/h
249 07-05-2021 20:40:00 9.8 C 6.03 g/m*3 9.14 C 6.4 km/h
250 07-05-2021 20:45:00 9.4 C 6.06 g/m*3 8.68 C 6.4 km/h
Sensor: Nr:Datum:Temp:Abs-Feuchte:Windchill:Wind:
Aussen-T/F 251 07-05-2021 20:50:00 9.1 C 6.03 g/m*3 9.1 C 4.8 km/h
252 07-05-2021 20:55:00 8.8 C 6.01 g/m*3 8.8 C 4.8 km/h
253 07-05-2021 21:00:00 8.6 C 6.1 g/m*3 8.6 C 4.8 km/h
254 07-05-2021 21:05:00 8.4 C 6.11 g/m*3 8.4 C 4.8 km/h
255 07-05-2021 21:10:00 8.3 C 6.15 g/m*3 8.3 C 4.8 km/h
256 07-05-2021 21:15:00 8.2 C 6.11 g/m*3 7.29 C 6.4 km/h
257 07-05-2021 21:20:00 8.1 C 6.24 g/m*3 8.1 C 4.8 km/h
258 07-05-2021 21:25:00 8 C 6.28 g/m*3 8 C 3.2 km/h
259 07-05-2021 21:30:00 7.9 C 6.24 g/m*3 7.9 C 4.8 km/h
260 07-05-2021 21:35:00 7.8 C 6.28 g/m*3 7.8 C 4.8 km/h
261 07-05-2021 21:40:00 7.8 C 6.28 g/m*3 7.8 C 4.8 km/h
262 07-05-2021 21:45:00 7.7 C 6.32 g/m*3 7.7 C 3.2 km/h
263 07-05-2021 21:50:00 7.7 C 6.41 g/m*3 7.7 C 1.6 km/h
264 07-05-2021 21:55:00 7.6 C 6.44 g/m*3 7.6 C 1.6 km/h
265 07-05-2021 22:00:00 7.6 C 6.44 g/m*3 7.6 C 0 km/h
266 07-05-2021 22:05:00 7.5 C 6.48 g/m*3 7.5 C 0 km/h
267 07-05-2021 22:10:00 7.4 C 6.44 g/m*3 7.4 C 0 km/h
268 07-05-2021 22:15:00 7.3 C 6.4 g/m*3 7.3 C 0 km/h
269 07-05-2021 22:20:00 7.2 C 6.44 g/m*3 7.2 C 0 km/h
270 07-05-2021 22:25:00 7.1 C 6.4 g/m*3 7.1 C 0 km/h
271 07-05-2021 22:30:00 6.9 C 6.31 g/m*3 6.9 C 0 km/h
272 07-05-2021 22:35:00 6.8 C 6.27 g/m*3 6.8 C 0 km/h
273 07-05-2021 22:40:00 6.7 C 6.23 g/m*3 6.7 C 0 km/h
274 07-05-2021 22:45:00 6.5 C 6.22 g/m*3 6.5 C 0 km/h
275 07-05-2021 22:50:00 6.3 C 6.14 g/m*3 6.3 C 0 km/h
Sensor: Nr:Datum:Temp:Abs-Feuchte:Windchill:Wind:
Aussen-T/F 276 07-05-2021 22:55:00 6.2 C 6.1 g/m*3 6.2 C 0 km/h
277 07-05-2021 23:00:00 6.1 C 6.14 g/m*3 6.1 C 0 km/h
278 07-05-2021 23:05:00 6 C 6.1 g/m*3 6 C 0 km/h
279 07-05-2021 23:10:00 5.9 C 6.13 g/m*3 5.9 C 0 km/h
280 07-05-2021 23:15:00 5.8 C 6.16 g/m*3 5.8 C 0 km/h
281 07-05-2021 23:20:00 5.8 C 6.16 g/m*3 5.8 C 0 km/h
282 07-05-2021 23:25:00 5.7 C 6.12 g/m*3 5.7 C 0 km/h
283 07-05-2021 23:30:00 5.6 C 6.08 g/m*3 5.6 C 0 km/h
284 07-05-2021 23:35:00 5.5 C 6.04 g/m*3 5.5 C 0 km/h
285 07-05-2021 23:40:00 5.4 C 6 g/m*3 5.4 C 0 km/h
286 07-05-2021 23:45:00 5.2 C 5.92 g/m*3 5.2 C 0 km/h
287 07-05-2021 23:50:00 5.1 C 5.88 g/m*3 5.1 C 0 km/h
288 07-05-2021 23:55:00 4.9 C 5.81 g/m*3 4.9 C 0 km/h
289 08-05-2021 00:00:00 4.8 C 5.77 g/m*3 4.8 C 0 km/h
290 08-05-2021 00:05:00 4.7 C 5.73 g/m*3 4.7 C 0 km/h
291 08-05-2021 00:10:00 4.6 C 5.76 g/m*3 4.6 C 0 km/h
292 08-05-2021 00:15:00 4.4 C 5.68 g/m*3 4.4 C 0 km/h
293 08-05-2021 00:20:00 4.4 C 5.68 g/m*3 4.4 C 0 km/h
294 08-05-2021 00:25:00 4.3 C 5.71 g/m*3 4.3 C 0 km/h
295 08-05-2021 00:30:00 4.3 C 5.71 g/m*3 4.3 C 0 km/h
296 08-05-2021 00:35:00 4.2 C 5.67 g/m*3 4.2 C 0 km/h
297 08-05-2021 00:40:00 4.1 C 5.63 g/m*3 4.1 C 0 km/h
298 08-05-2021 00:45:00 3.9 C 5.56 g/m*3 3.9 C 0 km/h
299 08-05-2021 00:50:00 3.8 C 5.46 g/m*3 3.8 C 0 km/h
300 08-05-2021 00:55:00 3.8 C 5.52 g/m*3 3.8 C 0 km/h
Sensor: Nr:Datum:Temp:Abs-Feuchte:Windchill:Wind:
Aussen-T/F 301 08-05-2021 01:00:00 3.7 C 5.48 g/m*3 3.7 C 0 km/h
302 08-05-2021 01:05:00 3.7 C 5.48 g/m*3 3.7 C 0 km/h
303 08-05-2021 01:10:00 3.6 C 5.51 g/m*3 3.6 C 0 km/h
304 08-05-2021 01:15:00 3.6 C 5.51 g/m*3 3.6 C 0 km/h
305 08-05-2021 01:20:00 3.6 C 5.51 g/m*3 3.6 C 0 km/h
306 08-05-2021 01:25:00 3.6 C 5.51 g/m*3 3.6 C 0 km/h
307 08-05-2021 01:30:00 3.6 C 5.51 g/m*3 3.6 C 0 km/h
308 08-05-2021 01:35:00 3.5 C 5.47 g/m*3 3.5 C 0 km/h
309 08-05-2021 01:40:00 3.4 C 5.44 g/m*3 3.4 C 0 km/h
310 08-05-2021 01:45:00 3.4 C 5.44 g/m*3 3.4 C 0 km/h
311 08-05-2021 01:50:00 3.3 C 5.4 g/m*3 3.3 C 0 km/h
312 08-05-2021 01:55:00 3.3 C 5.4 g/m*3 3.3 C 0 km/h
313 08-05-2021 02:00:00 3.2 C 5.42 g/m*3 3.2 C 0 km/h
314 08-05-2021 02:05:00 3.1 C 5.39 g/m*3 3.1 C 0 km/h
315 08-05-2021 02:10:00 3 C 5.29 g/m*3 3 C 0 km/h
316 08-05-2021 02:15:00 2.9 C 5.32 g/m*3 2.9 C 0 km/h
317 08-05-2021 02:20:00 2.8 C 5.28 g/m*3 2.8 C 0 km/h
318 08-05-2021 02:25:00 2.7 C 5.24 g/m*3 2.7 C 0 km/h
319 08-05-2021 02:30:00 2.7 C 5.24 g/m*3 2.7 C 0 km/h
320 08-05-2021 02:35:00 2.7 C 5.3 g/m*3 2.7 C 3.2 km/h
321 08-05-2021 02:40:00 2.8 C 5.28 g/m*3 2.8 C 0 km/h
322 08-05-2021 02:45:00 2.7 C 5.24 g/m*3 2.7 C 0 km/h
323 08-05-2021 02:50:00 2.6 C 5.21 g/m*3 2.6 C 0 km/h
324 08-05-2021 02:55:00 2.4 C 5.14 g/m*3 2.4 C 0 km/h
325 08-05-2021 03:00:00 2.3 C 5.1 g/m*3 2.3 C 0 km/h
Sensor: Nr:Datum:Temp:Abs-Feuchte:Windchill:Wind:
Aussen-T/F 326 08-05-2021 03:05:00 2.3 C 5.1 g/m*3 2.3 C 1.6 km/h
327 08-05-2021 03:10:00 2.2 C 5.07 g/m*3 2.2 C 0 km/h
328 08-05-2021 03:15:00 2.1 C 5.04 g/m*3 2.1 C 0 km/h
329 08-05-2021 03:20:00 2.1 C 5.09 g/m*3 2.1 C 0 km/h
330 08-05-2021 03:25:00 1.9 C 5.02 g/m*3 1.9 C 0 km/h
331 08-05-2021 03:30:00 1.9 C 5.02 g/m*3 1.9 C 0 km/h
332 08-05-2021 03:35:00 1.8 C 4.99 g/m*3 1.8 C 0 km/h
333 08-05-2021 03:40:00 1.8 C 4.99 g/m*3 1.8 C 0 km/h
334 08-05-2021 03:45:00 1.7 C 4.95 g/m*3 1.7 C 0 km/h
335 08-05-2021 03:50:00 1.7 C 4.95 g/m*3 1.7 C 0 km/h
336 08-05-2021 03:55:00 1.6 C 4.92 g/m*3 1.6 C 0 km/h
337 08-05-2021 04:00:00 1.6 C 4.97 g/m*3 1.6 C 0 km/h
338 08-05-2021 04:05:00 1.6 C 4.97 g/m*3 1.6 C 0 km/h
339 08-05-2021 04:10:00 1.6 C 4.97 g/m*3 1.6 C 0 km/h
340 08-05-2021 04:15:00 1.5 C 4.94 g/m*3 1.5 C 0 km/h
341 08-05-2021 04:20:00 1.4 C 4.91 g/m*3 1.4 C 0 km/h
342 08-05-2021 04:25:00 1.4 C 4.91 g/m*3 1.4 C 0 km/h
343 08-05-2021 04:30:00 1.3 C 4.87 g/m*3 1.3 C 0 km/h
344 08-05-2021 04:35:00 1.3 C 4.87 g/m*3 1.3 C 0 km/h
345 08-05-2021 04:40:00 1.3 C 4.87 g/m*3 1.3 C 0 km/h
346 08-05-2021 04:45:00 1.3 C 4.87 g/m*3 1.3 C 0 km/h
347 08-05-2021 04:50:00 1.3 C 4.93 g/m*3 1.3 C 0 km/h
348 08-05-2021 04:55:00 1.3 C 4.93 g/m*3 1.3 C 0 km/h
349 08-05-2021 05:00:00 1.2 C 4.84 g/m*3 1.2 C 0 km/h
350 08-05-2021 05:05:00 1.2 C 4.84 g/m*3 1.2 C 0 km/h
Sensor: Nr:Datum:Temp:Abs-Feuchte:Windchill:Wind:
Aussen-T/F 351 08-05-2021 05:10:00 1.2 C 4.89 g/m*3 1.2 C 0 km/h
352 08-05-2021 05:15:00 1.1 C 4.86 g/m*3 1.1 C 0 km/h
353 08-05-2021 05:20:00 1.1 C 4.86 g/m*3 1.1 C 0 km/h
354 08-05-2021 05:25:00 1 C 4.83 g/m*3 1 C 0 km/h
355 08-05-2021 05:30:00 1 C 4.83 g/m*3 1 C 0 km/h
356 08-05-2021 05:35:00 1 C 4.83 g/m*3 1 C 0 km/h
357 08-05-2021 05:40:00 0.9 C 4.79 g/m*3 0.9 C 0 km/h
358 08-05-2021 05:45:00 0.9 C 4.79 g/m*3 0.9 C 0 km/h
359 08-05-2021 05:50:00 0.8 C 4.76 g/m*3 0.8 C 0 km/h
360 08-05-2021 05:55:00 0.8 C 4.76 g/m*3 0.8 C 0 km/h
361 08-05-2021 06:00:00 0.8 C 4.76 g/m*3 0.8 C 0 km/h
362 08-05-2021 06:05:00 0.8 C 4.76 g/m*3 0.8 C 0 km/h
363 08-05-2021 06:10:00 0.7 C 4.73 g/m*3 0.7 C 0 km/h
364 08-05-2021 06:15:00 0.7 C 4.73 g/m*3 0.7 C 0 km/h
365 08-05-2021 06:20:00 0.7 C 4.73 g/m*3 0.7 C 0 km/h
366 08-05-2021 06:25:00 0.7 C 4.73 g/m*3 0.7 C 0 km/h
367 08-05-2021 06:30:00 0.7 C 4.73 g/m*3 0.7 C 0 km/h
368 08-05-2021 06:35:00 0.7 C 4.78 g/m*3 0.7 C 0 km/h
369 08-05-2021 06:40:00 0.7 C 4.78 g/m*3 0.7 C 0 km/h
370 08-05-2021 06:45:00 0.8 C 4.81 g/m*3 0.8 C 0 km/h
371 08-05-2021 06:50:00 0.8 C 4.81 g/m*3 0.8 C 0 km/h
372 08-05-2021 06:55:00 0.9 C 4.85 g/m*3 0.9 C 0 km/h
373 08-05-2021 07:00:00 1 C 4.88 g/m*3 1 C 0 km/h
374 08-05-2021 07:05:00 1.2 C 4.95 g/m*3 1.2 C 0 km/h
375 08-05-2021 07:10:00 1.2 C 5 g/m*3 1.2 C 0 km/h
Sensor: Nr:Datum:Temp:Abs-Feuchte:Windchill:Wind:
Aussen-T/F 376 08-05-2021 07:15:00 1.2 C 4.95 g/m*3 1.2 C 0 km/h
377 08-05-2021 07:20:00 1.3 C 4.98 g/m*3 1.3 C 0 km/h
378 08-05-2021 07:25:00 1.3 C 4.98 g/m*3 1.3 C 0 km/h
379 08-05-2021 07:30:00 1.3 C 4.98 g/m*3 1.3 C 0 km/h
380 08-05-2021 07:35:00 1.4 C 5.01 g/m*3 1.4 C 0 km/h
381 08-05-2021 07:40:00 1.4 C 5.01 g/m*3 1.4 C 0 km/h
382 08-05-2021 07:45:00 1.6 C 5.14 g/m*3 1.6 C 0 km/h
383 08-05-2021 07:50:00 1.7 C 5.17 g/m*3 1.7 C 0 km/h
384 08-05-2021 07:55:00 1.9 C 5.24 g/m*3 1.9 C 0 km/h
385 08-05-2021 08:00:00 2.1 C 5.31 g/m*3 2.1 C 0 km/h
386 08-05-2021 08:05:00 2.2 C 5.35 g/m*3 2.2 C 0 km/h
387 08-05-2021 08:10:00 2.4 C 5.42 g/m*3 2.4 C 0 km/h
388 08-05-2021 08:15:00 2.6 C 5.5 g/m*3 2.6 C 0 km/h
389 08-05-2021 08:20:00 2.8 C 5.57 g/m*3 2.8 C 1.6 km/h
390 08-05-2021 08:25:00 2.9 C 5.67 g/m*3 2.9 C 0 km/h
391 08-05-2021 08:30:00 3.1 C 5.69 g/m*3 3.1 C 0 km/h
392 08-05-2021 08:35:00 3.3 C 5.82 g/m*3 3.3 C 0 km/h
393 08-05-2021 08:40:00 3.6 C 5.94 g/m*3 3.6 C 0 km/h
394 08-05-2021 08:45:00 3.8 C 6.02 g/m*3 3.8 C 0 km/h
395 08-05-2021 08:50:00 4 C 6.1 g/m*3 4 C 0 km/h
396 08-05-2021 08:55:00 4.2 C 6.19 g/m*3 4.2 C 0 km/h
397 08-05-2021 09:00:00 4.4 C 6.27 g/m*3 4.4 C 0 km/h
398 08-05-2021 09:05:00 4.7 C 6.33 g/m*3 4.7 C 0 km/h
399 08-05-2021 09:10:00 4.9 C 6.41 g/m*3 4.9 C 0 km/h
400 08-05-2021 09:15:00 5.2 C 6.54 g/m*3 5.2 C 0 km/h
Sensor: Nr:Datum:Temp:Abs-Feuchte:Windchill:Wind:
Aussen-T/F 401 08-05-2021 09:20:00 5.4 C 6.63 g/m*3 5.4 C 0 km/h
402 08-05-2021 09:25:00 5.7 C 6.69 g/m*3 5.7 C 0 km/h
403 08-05-2021 09:30:00 6.1 C 6.79 g/m*3 6.1 C 0 km/h
404 08-05-2021 09:35:00 6.4 C 6.78 g/m*3 6.4 C 0 km/h
405 08-05-2021 09:40:00 6.7 C 6.76 g/m*3 6.7 C 0 km/h
406 08-05-2021 09:45:00 7 C 6.74 g/m*3 7 C 0 km/h
407 08-05-2021 09:50:00 7.3 C 6.72 g/m*3 7.3 C 0 km/h
408 08-05-2021 09:55:00 7.7 C 6.81 g/m*3 7.7 C 0 km/h
409 08-05-2021 10:00:00 8 C 6.7 g/m*3 8 C 0 km/h
410 08-05-2021 10:05:00 8.3 C 6.74 g/m*3 8.3 C 0 km/h
411 08-05-2021 10:10:00 8.6 C 6.79 g/m*3 8.6 C 0 km/h
412 08-05-2021 10:15:00 8.8 C 6.7 g/m*3 8.8 C 0 km/h
413 08-05-2021 10:20:00 9.1 C 6.92 g/m*3 9.1 C 0 km/h
414 08-05-2021 10:25:00 9.3 C 6.83 g/m*3 9.3 C 0 km/h
415 08-05-2021 10:30:00 9.6 C 6.87 g/m*3 9.6 C 4.8 km/h
416 08-05-2021 10:35:00 9.8 C 6.96 g/m*3 9.8 C 4.8 km/h
417 08-05-2021 10:40:00 9.9 C 6.91 g/m*3 9.9 C 0 km/h
418 08-05-2021 10:45:00 10.2 C 7.04 g/m*3 10.2 C 0 km/h
419 08-05-2021 10:50:00 10.4 C 7.04 g/m*3 10.4 C 4.8 km/h
420 08-05-2021 10:55:00 10.8 C 7.22 g/m*3 9.93 C 8.1 km/h
421 08-05-2021 11:00:00 11.3 C 7.14 g/m*3 11.3 C 6.4 km/h
422 08-05-2021 11:05:00 11.6 C 7.17 g/m*3 11.6 C 3.2 km/h
423 08-05-2021 11:10:00 11.9 C 6.99 g/m*3 11.9 C 6.4 km/h
424 08-05-2021 11:15:00 12.3 C 6.62 g/m*3 12.3 C 4.8 km/h
425 08-05-2021 11:20:00 12.7 C 6.46 g/m*3 12.7 C 4.8 km/h
Sensor: Nr:Datum:Temp:Abs-Feuchte:Windchill:Wind:
Aussen-T/F 426 08-05-2021 11:25:00 13.2 C 6.54 g/m*3 13.2 C 4.8 km/h
427 08-05-2021 11:30:00 13.7 C 6.51 g/m*3 13.7 C 11.3 km/h
428 08-05-2021 11:35:00 13.8 C 6.08 g/m*3 13.8 C 12.9 km/h
429 08-05-2021 11:40:00 14 C 6.15 g/m*3 14 C 8.1 km/h
430 08-05-2021 11:45:00 14.2 C 6.47 g/m*3 14.2 C 3.2 km/h
431 08-05-2021 11:50:00 14.4 C 6.43 g/m*3 14.4 C 6.4 km/h
432 08-05-2021 11:55:00 14.6 C 6.38 g/m*3 14.6 C 8.1 km/h
433 08-05-2021 12:00:00 14.6 C 6.13 g/m*3 14.6 C 6.4 km/h
434 08-05-2021 12:05:00 14.7 C 6.67 g/m*3 14.7 C 4.8 km/h
435 08-05-2021 12:10:00 14.8 C 6.46 g/m*3 14.8 C 11.3 km/h
436 08-05-2021 12:15:00 14.9 C 5.86 g/m*3 14.9 C 12.9 km/h
437 08-05-2021 12:20:00 15.1 C 6.19 g/m*3 15.1 C 14.5 km/h
438 08-05-2021 12:25:00 15.1 C 6.06 g/m*3 15.1 C 11.3 km/h
439 08-05-2021 12:30:00 15.2 C 5.97 g/m*3 15.2 C 11.3 km/h
440 08-05-2021 12:35:00 15.4 C 6.04 g/m*3 15.4 C 8.1 km/h
441 08-05-2021 12:40:00 15.5 C 6.08 g/m*3 15.5 C 9.7 km/h
442 08-05-2021 12:45:00 15.6 C 5.72 g/m*3 15.6 C 11.3 km/h
443 08-05-2021 12:50:00 15.7 C 6.15 g/m*3 15.7 C 8.1 km/h
444 08-05-2021 12:55:00 15.8 C 6.19 g/m*3 15.8 C 6.4 km/h
445 08-05-2021 13:00:00 15.9 C 5.96 g/m*3 15.9 C 11.3 km/h
446 08-05-2021 13:05:00 16.1 C 6.58 g/m*3 16.1 C 9.7 km/h
447 08-05-2021 13:10:00 15.9 C 6.09 g/m*3 15.9 C 14.5 km/h
448 08-05-2021 13:15:00 15.9 C 6.23 g/m*3 15.9 C 11.3 km/h
449 08-05-2021 13:20:00 15.8 C 5.92 g/m*3 15.8 C 11.3 km/h
450 08-05-2021 13:25:00 15.9 C 5.96 g/m*3 15.9 C 9.7 km/h
Sensor: Nr:Datum:Temp:Abs-Feuchte:Windchill:Wind:
Aussen-T/F 451 08-05-2021 13:30:00 16 C 6.27 g/m*3 16 C 8.1 km/h
452 08-05-2021 13:35:00 16.2 C 6.21 g/m*3 16.2 C 9.7 km/h
453 08-05-2021 13:40:00 16.2 C 6.07 g/m*3 16.2 C 12.9 km/h
454 08-05-2021 13:45:00 16.2 C 6.21 g/m*3 16.2 C 8.1 km/h
455 08-05-2021 13:50:00 16.3 C 6.38 g/m*3 16.3 C 4.8 km/h
456 08-05-2021 13:55:00 16.4 C 6.14 g/m*3 16.4 C 11.3 km/h
457 08-05-2021 14:00:00 16.4 C 6.42 g/m*3 16.4 C 12.9 km/h
458 08-05-2021 14:05:00 16.6 C 6.36 g/m*3 16.6 C 9.7 km/h
459 08-05-2021 14:10:00 16.7 C 6.4 g/m*3 16.7 C 14.5 km/h
460 08-05-2021 14:15:00 16.8 C 6.43 g/m*3 16.8 C 17.7 km/h
461 08-05-2021 14:20:00 16.7 C 6.68 g/m*3 16.7 C 17.7 km/h
462 08-05-2021 14:25:00 16.8 C 6.58 g/m*3 16.8 C 6.4 km/h
463 08-05-2021 14:30:00 16.8 C 6.72 g/m*3 16.8 C 11.3 km/h
464 08-05-2021 14:35:00 16.9 C 6.62 g/m*3 16.9 C 19.3 km/h
465 08-05-2021 14:40:00 16.9 C 6.62 g/m*3 16.9 C 14.5 km/h
466 08-05-2021 14:45:00 16.9 C 6.47 g/m*3 16.9 C 19.3 km/h
467 08-05-2021 14:50:00 17.1 C 6.7 g/m*3 17.1 C 11.3 km/h
468 08-05-2021 14:55:00 17.1 C 6.55 g/m*3 17.1 C 11.3 km/h
469 08-05-2021 15:00:00 17.1 C 6.7 g/m*3 17.1 C 14.5 km/h
470 08-05-2021 15:05:00 17.1 C 6.84 g/m*3 17.1 C 6.4 km/h
471 08-05-2021 15:10:00 17.2 C 6.74 g/m*3 17.2 C 8.1 km/h
472 08-05-2021 15:15:00 17.2 C 6.88 g/m*3 17.2 C 9.7 km/h
473 08-05-2021 15:20:00 17.1 C 6.99 g/m*3 17.1 C 6.4 km/h
474 08-05-2021 15:25:00 16.9 C 6.76 g/m*3 16.9 C 16.1 km/h
475 08-05-2021 15:30:00 16.8 C 7.01 g/m*3 16.8 C 14.5 km/h
Sensor: Nr:Datum:Temp:Abs-Feuchte:Windchill:Wind:
Aussen-T/F 476 08-05-2021 15:35:00 16.7 C 6.82 g/m*3 16.7 C 14.5 km/h
477 08-05-2021 15:40:00 16.8 C 7.01 g/m*3 16.8 C 11.3 km/h
478 08-05-2021 15:45:00 16.9 C 6.76 g/m*3 16.9 C 9.7 km/h
479 08-05-2021 15:50:00 17 C 7.09 g/m*3 17 C 8.1 km/h
480 08-05-2021 15:55:00 17 C 6.95 g/m*3 17 C 6.4 km/h
481 08-05-2021 16:00:00 17.1 C 6.99 g/m*3 17.1 C 6.4 km/h
482 08-05-2021 16:05:00 16.9 C 6.76 g/m*3 16.9 C 8.1 km/h
483 08-05-2021 16:10:00 16.9 C 7.05 g/m*3 16.9 C 1.6 km/h
484 08-05-2021 16:15:00 16.9 C 7.05 g/m*3 16.9 C 8.1 km/h
485 08-05-2021 16:20:00 16.8 C 7.15 g/m*3 16.8 C 1.6 km/h
486 08-05-2021 16:25:00 16.8 C 7.01 g/m*3 16.8 C 8.1 km/h
487 08-05-2021 16:30:00 16.8 C 7.29 g/m*3 16.8 C 4.8 km/h
488 08-05-2021 16:35:00 16.8 C 7.29 g/m*3 16.8 C 6.4 km/h
489 08-05-2021 16:40:00 16.9 C 7.34 g/m*3 16.9 C 3.2 km/h
490 08-05-2021 16:45:00 17 C 7.09 g/m*3 17 C 6.4 km/h
491 08-05-2021 16:50:00 17.1 C 7.13 g/m*3 17.1 C 6.4 km/h
492 08-05-2021 16:55:00 17.2 C 7.47 g/m*3 17.2 C 6.4 km/h
493 08-05-2021 17:00:00 17.2 C 7.32 g/m*3 17.2 C 16.1 km/h
494 08-05-2021 17:05:00 17.3 C 7.37 g/m*3 17.3 C 4.8 km/h
495 08-05-2021 17:10:00 17.3 C 7.37 g/m*3 17.3 C 12.9 km/h
496 08-05-2021 17:15:00 17.4 C 7.56 g/m*3 17.4 C 12.9 km/h
497 08-05-2021 17:20:00 17.5 C 7.6 g/m*3 17.5 C 9.7 km/h
498 08-05-2021 17:25:00 17.6 C 7.65 g/m*3 17.6 C 4.8 km/h
499 08-05-2021 17:30:00 17.6 C 7.65 g/m*3 17.6 C 9.7 km/h
500 08-05-2021 17:35:00 17.6 C 7.65 g/m*3 17.6 C 11.3 km/h
Sensor: Nr:Datum:Temp:Abs-Feuchte:Windchill:Wind:
Aussen-T/F 501 08-05-2021 17:40:00 17.6 C 7.65 g/m*3 17.6 C 4.8 km/h
502 08-05-2021 17:45:00 17.6 C 7.65 g/m*3 17.6 C 1.6 km/h
503 08-05-2021 17:50:00 17.8 C 7.59 g/m*3 17.8 C 6.4 km/h
504 08-05-2021 17:55:00 18 C 7.68 g/m*3 18 C 3.2 km/h
505 08-05-2021 18:00:00 18.2 C 7.77 g/m*3 18.2 C 1.6 km/h
506 08-05-2021 18:05:00 18.3 C 7.97 g/m*3 18.3 C 6.4 km/h
507 08-05-2021 18:10:00 18.3 C 7.97 g/m*3 18.3 C 6.4 km/h
508 08-05-2021 18:15:00 18.4 C 7.86 g/m*3 18.4 C 6.4 km/h
509 08-05-2021 18:20:00 18.6 C 8.28 g/m*3 18.6 C 6.4 km/h
510 08-05-2021 18:25:00 18.7 C 8.01 g/m*3 18.7 C 6.4 km/h
511 08-05-2021 18:30:00 18.7 C 8.33 g/m*3 18.7 C 6.4 km/h
512 08-05-2021 18:35:00 18.8 C 8.05 g/m*3 18.8 C 6.4 km/h
513 08-05-2021 18:40:00 18.9 C 8.26 g/m*3 18.9 C 4.8 km/h
514 08-05-2021 18:45:00 18.8 C 8.37 g/m*3 18.8 C 8.1 km/h
515 08-05-2021 18:50:00 18.7 C 7.84 g/m*3 18.7 C 4.8 km/h
516 08-05-2021 18:55:00 18.6 C 8.59 g/m*3 18.6 C 1.6 km/h
517 08-05-2021 19:00:00 18.5 C 8.23 g/m*3 18.5 C 1.6 km/h
518 08-05-2021 19:05:00 18.4 C 8.02 g/m*3 18.4 C 4.8 km/h
519 08-05-2021 19:10:00 18.3 C 7.97 g/m*3 18.3 C 0 km/h
520 08-05-2021 19:15:00 18.3 C 8.76 g/m*3 18.3 C 0 km/h
521 08-05-2021 19:20:00 18.3 C 8.13 g/m*3 18.3 C 4.8 km/h
522 08-05-2021 19:25:00 18.3 C 9.07 g/m*3 18.3 C 0 km/h
523 08-05-2021 19:30:00 18.2 C 8.55 g/m*3 18.2 C 3.2 km/h
524 08-05-2021 19:35:00 18.1 C 8.96 g/m*3 18.1 C 3.2 km/h
525 08-05-2021 19:40:00 18.1 C 9.43 g/m*3 18.1 C 1.6 km/h
Sensor: Nr:Datum:Temp:Abs-Feuchte:Windchill:Wind:
Aussen-T/F 526 08-05-2021 19:45:00 17.8 C 9.26 g/m*3 17.8 C 1.6 km/h
527 08-05-2021 19:50:00 17.4 C 9.04 g/m*3 17.4 C 0 km/h
528 08-05-2021 19:55:00 17.2 C 9.37 g/m*3 17.2 C 3.2 km/h
529 08-05-2021 20:00:00 16.8 C 9.15 g/m*3 16.8 C 4.8 km/h
530 08-05-2021 20:05:00 16.5 C 9.13 g/m*3 16.5 C 4.8 km/h
531 08-05-2021 20:10:00 16.2 C 9.24 g/m*3 16.2 C 6.4 km/h
532 08-05-2021 20:15:00 15.8 C 9.15 g/m*3 15.8 C 4.8 km/h
533 08-05-2021 20:20:00 15.5 C 9.12 g/m*3 15.5 C 6.4 km/h
534 08-05-2021 20:25:00 15.3 C 9.01 g/m*3 15.3 C 4.8 km/h
535 08-05-2021 20:30:00 15 C 9.1 g/m*3 15 C 4.8 km/h
536 08-05-2021 20:35:00 14.8 C 8.99 g/m*3 14.8 C 6.4 km/h
537 08-05-2021 20:40:00 14.6 C 9.01 g/m*3 14.6 C 4.8 km/h
538 08-05-2021 20:45:00 14.4 C 9.02 g/m*3 14.4 C 4.8 km/h
539 08-05-2021 20:50:00 14.3 C 8.97 g/m*3 14.3 C 4.8 km/h
540 08-05-2021 20:55:00 14.2 C 9.04 g/m*3 14.2 C 4.8 km/h
541 08-05-2021 21:00:00 14.1 C 8.98 g/m*3 14.1 C 4.8 km/h
542 08-05-2021 21:05:00 14 C 9.05 g/m*3 14 C 4.8 km/h
543 08-05-2021 21:10:00 13.9 C 8.99 g/m*3 13.9 C 4.8 km/h
544 08-05-2021 21:15:00 13.9 C 8.99 g/m*3 13.9 C 4.8 km/h
545 08-05-2021 21:20:00 13.8 C 8.94 g/m*3 13.8 C 4.8 km/h
546 08-05-2021 21:25:00 13.8 C 9.06 g/m*3 13.8 C 4.8 km/h
547 08-05-2021 21:30:00 13.7 C 9 g/m*3 13.7 C 3.2 km/h
548 08-05-2021 21:35:00 13.7 C 9.12 g/m*3 13.7 C 4.8 km/h
549 08-05-2021 21:40:00 13.6 C 8.94 g/m*3 13.6 C 4.8 km/h
550 08-05-2021 21:45:00 13.6 C 9.06 g/m*3 13.6 C 0 km/h
Sensor: Nr:Datum:Temp:Abs-Feuchte:Windchill:Wind:
Aussen-T/F 551 08-05-2021 21:50:00 13.6 C 9.06 g/m*3 13.6 C 4.8 km/h
552 08-05-2021 21:55:00 13.5 C 9.01 g/m*3 13.5 C 4.8 km/h
553 08-05-2021 22:00:00 13.4 C 8.95 g/m*3 13.4 C 3.2 km/h
554 08-05-2021 22:05:00 13.4 C 8.95 g/m*3 13.4 C 4.8 km/h
555 08-05-2021 22:10:00 13.4 C 8.95 g/m*3 13.4 C 4.8 km/h
556 08-05-2021 22:15:00 13.3 C 8.9 g/m*3 13.3 C 0 km/h
557 08-05-2021 22:20:00 13.3 C 8.9 g/m*3 13.3 C 0 km/h
558 08-05-2021 22:25:00 13.2 C 8.84 g/m*3 13.2 C 0 km/h
559 08-05-2021 22:30:00 13.1 C 8.79 g/m*3 13.1 C 0 km/h
560 08-05-2021 22:35:00 13 C 8.85 g/m*3 13 C 0 km/h
561 08-05-2021 22:40:00 12.9 C 8.79 g/m*3 12.9 C 0 km/h
562 08-05-2021 22:45:00 12.9 C 8.79 g/m*3 12.9 C 0 km/h
563 08-05-2021 22:50:00 12.8 C 8.74 g/m*3 12.8 C 0 km/h
564 08-05-2021 22:55:00 12.8 C 8.74 g/m*3 12.8 C 4.8 km/h
565 08-05-2021 23:00:00 12.7 C 8.68 g/m*3 12.7 C 4.8 km/h
566 08-05-2021 23:05:00 12.6 C 8.74 g/m*3 12.6 C 6.4 km/h
567 08-05-2021 23:10:00 12.4 C 8.63 g/m*3 12.4 C 4.8 km/h
568 08-05-2021 23:15:00 12.3 C 8.58 g/m*3 12.3 C 3.2 km/h
569 08-05-2021 23:20:00 12.3 C 8.69 g/m*3 12.3 C 4.8 km/h
570 08-05-2021 23:25:00 12.2 C 8.63 g/m*3 12.2 C 4.8 km/h
571 08-05-2021 23:30:00 12.1 C 8.69 g/m*3 12.1 C 4.8 km/h
572 08-05-2021 23:35:00 12 C 8.63 g/m*3 12 C 3.2 km/h
573 08-05-2021 23:40:00 11.9 C 8.58 g/m*3 11.9 C 4.8 km/h
574 08-05-2021 23:45:00 11.8 C 8.53 g/m*3 11.8 C 0 km/h
575 08-05-2021 23:50:00 11.7 C 8.58 g/m*3 11.7 C 3.2 km/h
Sensor: Nr:Datum:Temp:Abs-Feuchte:Windchill:Wind:
Aussen-T/F 576 08-05-2021 23:55:00 11.7 C 8.58 g/m*3 11.7 C 4.8 km/h
577 09-05-2021 00:00:00 11.6 C 8.63 g/m*3 11.6 C 3.2 km/h
578 09-05-2021 00:05:00 11.4 C 8.52 g/m*3 11.4 C 3.2 km/h
579 09-05-2021 00:10:00 11.4 C 8.52 g/m*3 11.4 C 3.2 km/h
580 09-05-2021 00:15:00 11.3 C 8.47 g/m*3 11.3 C 1.6 km/h
581 09-05-2021 00:20:00 11.2 C 8.41 g/m*3 11.2 C 3.2 km/h
582 09-05-2021 00:25:00 11.1 C 8.36 g/m*3 11.1 C 1.6 km/h
583 09-05-2021 00:30:00 10.9 C 8.26 g/m*3 10.9 C 0 km/h
584 09-05-2021 00:35:00 10.8 C 8.3 g/m*3 10.8 C 3.2 km/h
585 09-05-2021 00:40:00 10.8 C 8.3 g/m*3 10.8 C 0 km/h
586 09-05-2021 00:45:00 10.7 C 8.35 g/m*3 10.7 C 3.2 km/h
587 09-05-2021 00:50:00 10.7 C 8.35 g/m*3 10.7 C 1.6 km/h
588 09-05-2021 00:55:00 10.6 C 8.3 g/m*3 10.6 C 0 km/h
589 09-05-2021 01:00:00 10.5 C 8.24 g/m*3 10.5 C 3.2 km/h
590 09-05-2021 01:05:00 10.4 C 8.19 g/m*3 10.4 C 3.2 km/h
591 09-05-2021 01:10:00 10.4 C 8.29 g/m*3 10.4 C 3.2 km/h
592 09-05-2021 01:15:00 10.3 C 8.24 g/m*3 10.3 C 4.8 km/h
593 09-05-2021 01:20:00 10.2 C 8.18 g/m*3 10.2 C 4.8 km/h
594 09-05-2021 01:25:00 10.2 C 8.18 g/m*3 10.2 C 0 km/h
595 09-05-2021 01:30:00 10.1 C 8.13 g/m*3 10.1 C 1.6 km/h
596 09-05-2021 01:35:00 10 C 8.08 g/m*3 10 C 0 km/h
597 09-05-2021 01:40:00 9.9 C 8.12 g/m*3 9.9 C 0 km/h
598 09-05-2021 01:45:00 9.8 C 8.07 g/m*3 9.8 C 1.6 km/h
599 09-05-2021 01:50:00 9.7 C 8.02 g/m*3 9.7 C 0 km/h
600 09-05-2021 01:55:00 9.7 C 8.11 g/m*3 9.7 C 1.6 km/h
Sensor: Nr:Datum:Temp:Abs-Feuchte:Windchill:Wind:
Aussen-T/F 601 09-05-2021 02:00:00 9.6 C 8.06 g/m*3 9.6 C 0 km/h
602 09-05-2021 02:05:00 9.6 C 8.06 g/m*3 9.6 C 0 km/h
603 09-05-2021 02:10:00 9.5 C 8.01 g/m*3 9.5 C 0 km/h
604 09-05-2021 02:15:00 9.4 C 8.05 g/m*3 9.4 C 0 km/h
605 09-05-2021 02:20:00 9.3 C 8 g/m*3 9.3 C 0 km/h
606 09-05-2021 02:25:00 9.3 C 8 g/m*3 9.3 C 0 km/h
607 09-05-2021 02:30:00 9.2 C 7.95 g/m*3 9.2 C 0 km/h
608 09-05-2021 02:35:00 9.2 C 7.95 g/m*3 9.2 C 0 km/h
609 09-05-2021 02:40:00 9.2 C 7.95 g/m*3 9.2 C 0 km/h
610 09-05-2021 02:45:00 9.1 C 7.99 g/m*3 9.1 C 1.6 km/h
611 09-05-2021 02:50:00 9.1 C 7.99 g/m*3 9.1 C 0 km/h
612 09-05-2021 02:55:00 9 C 7.93 g/m*3 9 C 0 km/h
613 09-05-2021 03:00:00 8.9 C 7.88 g/m*3 8.9 C 0 km/h
614 09-05-2021 03:05:00 8.9 C 7.88 g/m*3 8.9 C 0 km/h
615 09-05-2021 03:10:00 8.8 C 7.83 g/m*3 8.8 C 0 km/h
616 09-05-2021 03:15:00 8.8 C 7.83 g/m*3 8.8 C 0 km/h
617 09-05-2021 03:20:00 8.7 C 7.87 g/m*3 8.7 C 0 km/h
618 09-05-2021 03:25:00 8.7 C 7.87 g/m*3 8.7 C 0 km/h
619 09-05-2021 03:30:00 8.7 C 7.87 g/m*3 8.7 C 0 km/h
620 09-05-2021 03:35:00 8.7 C 7.87 g/m*3 8.7 C 0 km/h
621 09-05-2021 03:40:00 8.7 C 7.87 g/m*3 8.7 C 0 km/h
622 09-05-2021 03:45:00 8.6 C 7.82 g/m*3 8.6 C 0 km/h
623 09-05-2021 03:50:00 8.6 C 7.82 g/m*3 8.6 C 0 km/h
624 09-05-2021 03:55:00 8.5 C 7.77 g/m*3 8.5 C 0 km/h
625 09-05-2021 04:00:00 8.4 C 7.72 g/m*3 8.4 C 0 km/h
Sensor: Nr:Datum:Temp:Abs-Feuchte:Windchill:Wind:
Aussen-T/F 626 09-05-2021 04:05:00 8.4 C 7.72 g/m*3 8.4 C 0 km/h
627 09-05-2021 04:10:00 8.3 C 7.67 g/m*3 8.3 C 0 km/h
628 09-05-2021 04:15:00 8.3 C 7.67 g/m*3 8.3 C 0 km/h
629 09-05-2021 04:20:00 8.2 C 7.62 g/m*3 8.2 C 0 km/h
630 09-05-2021 04:25:00 8.1 C 7.57 g/m*3 8.1 C 0 km/h
631 09-05-2021 04:30:00 8.1 C 7.57 g/m*3 8.1 C 0 km/h
632 09-05-2021 04:35:00 8.1 C 7.66 g/m*3 8.1 C 0 km/h
633 09-05-2021 04:40:00 8 C 7.61 g/m*3 8 C 0 km/h
634 09-05-2021 04:45:00 8 C 7.61 g/m*3 8 C 0 km/h
635 09-05-2021 04:50:00 8 C 7.61 g/m*3 8 C 0 km/h
636 09-05-2021 04:55:00 8 C 7.61 g/m*3 8 C 0 km/h
637 09-05-2021 05:00:00 7.9 C 7.56 g/m*3 7.9 C 0 km/h
638 09-05-2021 05:05:00 7.9 C 7.56 g/m*3 7.9 C 0 km/h
639 09-05-2021 05:10:00 7.9 C 7.64 g/m*3 7.9 C 0 km/h
640 09-05-2021 05:15:00 8 C 7.69 g/m*3 8 C 0 km/h
641 09-05-2021 05:20:00 8 C 7.69 g/m*3 8 C 0 km/h
642 09-05-2021 05:25:00 7.9 C 7.64 g/m*3 7.9 C 0 km/h
643 09-05-2021 05:30:00 7.9 C 7.56 g/m*3 7.9 C 0 km/h
644 09-05-2021 05:35:00 7.8 C 7.51 g/m*3 7.8 C 0 km/h
645 09-05-2021 05:40:00 7.7 C 7.46 g/m*3 7.7 C 0 km/h
646 09-05-2021 05:45:00 7.6 C 7.41 g/m*3 7.6 C 0 km/h
647 09-05-2021 05:50:00 7.5 C 7.44 g/m*3 7.5 C 0 km/h
648 09-05-2021 05:55:00 7.5 C 7.44 g/m*3 7.5 C 0 km/h
649 09-05-2021 06:00:00 7.4 C 7.4 g/m*3 7.4 C 0 km/h
650 09-05-2021 06:05:00 7.4 C 7.4 g/m*3 7.4 C 0 km/h
Sensor: Nr:Datum:Temp:Abs-Feuchte:Windchill:Wind:
Aussen-T/F 651 09-05-2021 06:10:00 7.4 C 7.4 g/m*3 7.4 C 0 km/h
652 09-05-2021 06:15:00 7.4 C 7.4 g/m*3 7.4 C 0 km/h
653 09-05-2021 06:20:00 7.4 C 7.4 g/m*3 7.4 C 0 km/h
654 09-05-2021 06:25:00 7.4 C 7.4 g/m*3 7.4 C 0 km/h
655 09-05-2021 06:30:00 7.5 C 7.52 g/m*3 7.5 C 0 km/h
656 09-05-2021 06:35:00 7.6 C 7.57 g/m*3 7.6 C 0 km/h
657 09-05-2021 06:40:00 7.6 C 7.57 g/m*3 7.6 C 0 km/h
658 09-05-2021 06:45:00 7.7 C 7.62 g/m*3 7.7 C 0 km/h
659 09-05-2021 06:50:00 7.7 C 7.62 g/m*3 7.7 C 0 km/h
660 09-05-2021 06:55:00 7.8 C 7.67 g/m*3 7.8 C 0 km/h
661 09-05-2021 07:00:00 7.9 C 7.72 g/m*3 7.9 C 0 km/h
662 09-05-2021 07:05:00 8.1 C 7.9 g/m*3 8.1 C 0 km/h
663 09-05-2021 07:10:00 8.2 C 7.87 g/m*3 8.2 C 0 km/h
664 09-05-2021 07:15:00 8.3 C 8.01 g/m*3 8.3 C 0 km/h
665 09-05-2021 07:20:00 8.4 C 8.06 g/m*3 8.4 C 0 km/h
666 09-05-2021 07:25:00 8.5 C 8.03 g/m*3 8.5 C 0 km/h
667 09-05-2021 07:30:00 8.6 C 8.16 g/m*3 8.6 C 0 km/h
668 09-05-2021 07:35:00 8.7 C 8.13 g/m*3 8.7 C 0 km/h
669 09-05-2021 07:40:00 8.8 C 8.18 g/m*3 8.8 C 0 km/h
670 09-05-2021 07:45:00 8.8 C 8.18 g/m*3 8.8 C 0 km/h
671 09-05-2021 07:50:00 8.9 C 8.32 g/m*3 8.9 C 0 km/h
672 09-05-2021 07:55:00 9.1 C 8.43 g/m*3 9.1 C 0 km/h
673 09-05-2021 08:00:00 9.2 C 8.48 g/m*3 9.2 C 0 km/h
674 09-05-2021 08:05:00 9.3 C 8.54 g/m*3 9.3 C 0 km/h
675 09-05-2021 08:10:00 9.4 C 8.59 g/m*3 9.4 C 0 km/h
Sensor: Nr:Datum:Temp:Abs-Feuchte:Windchill:Wind:
Aussen-T/F 676 09-05-2021 08:15:00 9.6 C 8.7 g/m*3 9.6 C 0 km/h
677 09-05-2021 08:20:00 9.7 C 8.76 g/m*3 9.7 C 0 km/h
678 09-05-2021 08:25:00 9.8 C 8.72 g/m*3 9.8 C 0 km/h
679 09-05-2021 08:30:00 9.9 C 8.78 g/m*3 9.9 C 0 km/h
680 09-05-2021 08:35:00 10.1 C 8.98 g/m*3 10.1 C 0 km/h
681 09-05-2021 08:40:00 10.2 C 8.95 g/m*3 10.2 C 0 km/h
682 09-05-2021 08:45:00 10.3 C 9 g/m*3 10.3 C 0 km/h
683 09-05-2021 08:50:00 10.4 C 9.06 g/m*3 10.4 C 0 km/h
684 09-05-2021 08:55:00 10.6 C 9.17 g/m*3 10.6 C 0 km/h
685 09-05-2021 09:00:00 10.7 C 9.23 g/m*3 10.7 C 0 km/h
686 09-05-2021 09:05:00 10.9 C 9.35 g/m*3 10.9 C 0 km/h
687 09-05-2021 09:10:00 11.1 C 9.47 g/m*3 11.1 C 0 km/h
688 09-05-2021 09:15:00 11.2 C 9.53 g/m*3 11.2 C 0 km/h
689 09-05-2021 09:20:00 11.4 C 9.55 g/m*3 11.4 C 0 km/h
690 09-05-2021 09:25:00 11.7 C 9.73 g/m*3 11.7 C 0 km/h
691 09-05-2021 09:30:00 11.9 C 9.85 g/m*3 11.9 C 0 km/h
692 09-05-2021 09:35:00 12.2 C 10.04 g/m*3 12.2 C 0 km/h
693 09-05-2021 09:40:00 12.6 C 10.18 g/m*3 12.6 C 1.6 km/h
694 09-05-2021 09:45:00 12.9 C 10.26 g/m*3 12.9 C 1.6 km/h
695 09-05-2021 09:50:00 13.3 C 10.51 g/m*3 13.3 C 0 km/h
696 09-05-2021 09:55:00 13.8 C 10.72 g/m*3 13.8 C 1.6 km/h
697 09-05-2021 10:00:00 14.3 C 10.81 g/m*3 14.3 C 4.8 km/h
698 09-05-2021 10:05:00 14.9 C 11.09 g/m*3 14.9 C 3.2 km/h
699 09-05-2021 10:10:00 15.6 C 11.3 g/m*3 15.6 C 3.2 km/h
700 09-05-2021 10:15:00 16.3 C 11.38 g/m*3 16.3 C 8.1 km/h
Sensor: Nr:Datum:Temp:Abs-Feuchte:Windchill:Wind:
Aussen-T/F 701 09-05-2021 10:20:00 17.6 C 11.1 g/m*3 17.6 C 8.1 km/h
702 09-05-2021 10:25:00 18.5 C 11.71 g/m*3 18.5 C 8.1 km/h
703 09-05-2021 10:30:00 19.2 C 11.38 g/m*3 19.2 C 8.1 km/h
704 09-05-2021 10:35:00 19.7 C 11.55 g/m*3 19.7 C 6.4 km/h
705 09-05-2021 10:40:00 20.1 C 11.13 g/m*3 20.1 C 8.1 km/h
706 09-05-2021 10:45:00 20.6 C 11.63 g/m*3 20.6 C 6.4 km/h
707 09-05-2021 10:50:00 20.9 C 11.47 g/m*3 20.9 C 9.7 km/h
708 09-05-2021 10:55:00 21.3 C 11.37 g/m*3 21.3 C 12.9 km/h
709 09-05-2021 11:00:00 21.6 C 11.19 g/m*3 21.6 C 6.4 km/h
710 09-05-2021 11:05:00 21.7 C 11.06 g/m*3 21.7 C 11.3 km/h
711 09-05-2021 11:10:00 21.8 C 11.13 g/m*3 21.8 C 14.5 km/h
712 09-05-2021 11:15:00 21.9 C 11.19 g/m*3 21.9 C 16.1 km/h
713 09-05-2021 11:20:00 22.2 C 11.19 g/m*3 22.2 C 6.4 km/h
714 09-05-2021 11:25:00 22.4 C 11.12 g/m*3 22.4 C 11.3 km/h
715 09-05-2021 11:30:00 22.7 C 11.52 g/m*3 22.7 C 9.7 km/h
716 09-05-2021 11:35:00 22.9 C 11.24 g/m*3 22.9 C 9.7 km/h
717 09-05-2021 11:40:00 23.1 C 11.16 g/m*3 23.1 C 9.7 km/h
718 09-05-2021 11:45:00 23.2 C 11.02 g/m*3 23.2 C 14.5 km/h
719 09-05-2021 11:50:00 23.1 C 11.16 g/m*3 23.1 C 8.1 km/h
720 09-05-2021 11:55:00 23.2 C 11.23 g/m*3 23.2 C 4.8 km/h
721 09-05-2021 12:00:00 23.4 C 11.14 g/m*3 23.4 C 9.7 km/h
722 09-05-2021 12:05:00 23.6 C 10.85 g/m*3 23.6 C 9.7 km/h
723 09-05-2021 12:10:00 23.8 C 11.19 g/m*3 23.8 C 6.4 km/h
724 09-05-2021 12:15:00 23.9 C 10.82 g/m*3 23.9 C 17.7 km/h
725 09-05-2021 12:20:00 24.1 C 11.16 g/m*3 24.1 C 11.3 km/h
Sensor: Nr:Datum:Temp:Abs-Feuchte:Windchill:Wind:
Aussen-T/F 726 09-05-2021 12:25:00 24.2 C 11 g/m*3 24.2 C 12.9 km/h
727 09-05-2021 12:30:00 24.4 C 10.9 g/m*3 24.4 C 9.7 km/h
728 09-05-2021 12:35:00 24.5 C 11.41 g/m*3 24.5 C 9.7 km/h
729 09-05-2021 12:40:00 24.6 C 11.48 g/m*3 24.6 C 12.9 km/h
730 09-05-2021 12:45:00 24.6 C 11.25 g/m*3 24.6 C 17.7 km/h
731 09-05-2021 12:50:00 24.6 C 11.7 g/m*3 24.6 C 8.1 km/h
732 09-05-2021 12:55:00 24.7 C 11.32 g/m*3 24.7 C 16.1 km/h
733 09-05-2021 13:00:00 24.8 C 11.15 g/m*3 24.8 C 11.3 km/h
734 09-05-2021 13:05:00 24.9 C 11.45 g/m*3 24.9 C 11.3 km/h
735 09-05-2021 13:10:00 25.1 C 10.88 g/m*3 25.1 C 14.5 km/h
736 09-05-2021 13:15:00 25.3 C 11.47 g/m*3 25.3 C 11.3 km/h
737 09-05-2021 13:20:00 25.4 C 11.3 g/m*3 25.4 C 9.7 km/h
738 09-05-2021 13:25:00 25.6 C 11.19 g/m*3 25.6 C 8.1 km/h
739 09-05-2021 13:30:00 25.7 C 11.25 g/m*3 25.7 C 11.3 km/h
740 09-05-2021 13:35:00 25.9 C 11.38 g/m*3 25.9 C 11.3 km/h
741 09-05-2021 13:40:00 26.1 C 11.75 g/m*3 26.1 C 14.5 km/h
742 09-05-2021 13:45:00 26.3 C 11.39 g/m*3 26.3 C 12.9 km/h
743 09-05-2021 13:50:00 26.4 C 10.7 g/m*3 26.4 C 25.7 km/h
744 09-05-2021 13:55:00 26.6 C 10.57 g/m*3 26.6 C 25.7 km/h
745 09-05-2021 14:00:00 26.7 C 10.63 g/m*3 26.7 C 8.1 km/h
746 09-05-2021 14:05:00 26.8 C 10.44 g/m*3 26.8 C 14.5 km/h
747 09-05-2021 14:10:00 26.8 C 10.44 g/m*3 26.8 C 19.3 km/h
748 09-05-2021 14:15:00 26.9 C 10.75 g/m*3 26.9 C 9.7 km/h
749 09-05-2021 14:20:00 27 C 10.55 g/m*3 27 C 12.9 km/h
750 09-05-2021 14:25:00 27.1 C 10.35 g/m*3 27.1 C 14.5 km/h
Sensor: Nr:Datum:Temp:Abs-Feuchte:Windchill:Wind:
Aussen-T/F 751 09-05-2021 14:30:00 27.2 C 10.67 g/m*3 27.2 C 9.7 km/h
752 09-05-2021 14:35:00 27.3 C 10.73 g/m*3 27.3 C 17.7 km/h
753 09-05-2021 14:40:00 27.5 C 10.58 g/m*3 27.5 C 14.5 km/h
754 09-05-2021 14:45:00 27.7 C 10.16 g/m*3 27.7 C 11.3 km/h
755 09-05-2021 14:50:00 27.7 C 10.7 g/m*3 27.7 C 11.3 km/h
756 09-05-2021 14:55:00 27.7 C 10.97 g/m*3 27.7 C 12.9 km/h
757 09-05-2021 15:00:00 27.8 C 10.49 g/m*3 27.8 C 11.3 km/h
758 09-05-2021 15:05:00 27.9 C 10.55 g/m*3 27.9 C 16.1 km/h
759 09-05-2021 15:10:00 27.9 C 10.55 g/m*3 27.9 C 12.9 km/h
760 09-05-2021 15:15:00 28 C 10.33 g/m*3 28 C 22.5 km/h
761 09-05-2021 15:20:00 28.1 C 10.39 g/m*3 28.1 C 29 km/h
762 09-05-2021 15:25:00 28.3 C 10.51 g/m*3 28.3 C 11.3 km/h
763 09-05-2021 15:30:00 28.6 C 10.96 g/m*3 28.6 C 27.4 km/h
764 09-05-2021 15:35:00 28.8 C 10.51 g/m*3 28.8 C 19.3 km/h
765 09-05-2021 15:40:00 28.9 C 10.57 g/m*3 28.9 C 16.1 km/h
766 09-05-2021 15:45:00 29.1 C 10.11 g/m*3 29.1 C 17.7 km/h
767 09-05-2021 15:50:00 29.1 C 10.11 g/m*3 29.1 C 16.1 km/h
768 09-05-2021 15:55:00 28.9 C 10.28 g/m*3 28.9 C 16.1 km/h
769 09-05-2021 16:00:00 28.8 C 10.8 g/m*3 28.8 C 14.5 km/h
770 09-05-2021 16:05:00 28.9 C 11.14 g/m*3 28.9 C 12.9 km/h
771 09-05-2021 16:10:00 29.2 C 11.03 g/m*3 29.2 C 22.5 km/h
772 09-05-2021 16:15:00 29.3 C 10.8 g/m*3 29.3 C 19.3 km/h
773 09-05-2021 16:20:00 29.3 C 10.51 g/m*3 29.3 C 9.7 km/h
774 09-05-2021 16:25:00 29.2 C 10.16 g/m*3 29.2 C 9.7 km/h
775 09-05-2021 16:30:00 29.2 C 10.16 g/m*3 29.2 C 12.9 km/h
Sensor: Nr:Datum:Temp:Abs-Feuchte:Windchill:Wind:
Aussen-T/F 776 09-05-2021 16:35:00 29.2 C 10.74 g/m*3 29.2 C 16.1 km/h
777 09-05-2021 16:40:00 29.2 C 10.45 g/m*3 29.2 C 16.1 km/h
778 09-05-2021 16:45:00 29.2 C 10.16 g/m*3 29.2 C 16.1 km/h
779 09-05-2021 16:50:00 29.1 C 10.69 g/m*3 29.1 C 16.1 km/h
780 09-05-2021 16:55:00 29.2 C 11.03 g/m*3 29.2 C 8.1 km/h
781 09-05-2021 17:00:00 29.3 C 10.8 g/m*3 29.3 C 11.3 km/h
782 09-05-2021 17:05:00 29.4 C 10.57 g/m*3 29.4 C 19.3 km/h
783 09-05-2021 17:10:00 29.4 C 10.27 g/m*3 29.4 C 19.3 km/h
784 09-05-2021 17:15:00 29.4 C 9.98 g/m*3 29.4 C 14.5 km/h
785 09-05-2021 17:20:00 29.4 C 10.57 g/m*3 29.4 C 9.7 km/h
786 09-05-2021 17:25:00 29.6 C 10.68 g/m*3 29.6 C 11.3 km/h
787 09-05-2021 17:30:00 29.6 C 10.09 g/m*3 29.6 C 14.5 km/h
788 09-05-2021 17:35:00 29.7 C 10.44 g/m*3 29.7 C 11.3 km/h
789 09-05-2021 17:40:00 29.8 C 10.2 g/m*3 29.8 C 9.7 km/h
790 09-05-2021 17:45:00 29.8 C 10.2 g/m*3 29.8 C 9.7 km/h
791 09-05-2021 17:50:00 29.6 C 9.79 g/m*3 29.6 C 8.1 km/h
792 09-05-2021 17:55:00 29.2 C 9.58 g/m*3 29.2 C 14.5 km/h
793 09-05-2021 18:00:00 28.8 C 9.38 g/m*3 28.8 C 14.5 km/h
794 09-05-2021 18:05:00 28.5 C 9.5 g/m*3 28.5 C 11.3 km/h
795 09-05-2021 18:10:00 28.3 C 9.95 g/m*3 28.3 C 8.1 km/h
796 09-05-2021 18:15:00 27.8 C 9.41 g/m*3 27.8 C 16.1 km/h
797 09-05-2021 18:20:00 27.4 C 8.95 g/m*3 27.4 C 24.1 km/h
798 09-05-2021 18:25:00 27.1 C 9.06 g/m*3 27.1 C 20.9 km/h
799 09-05-2021 18:30:00 26.8 C 9.16 g/m*3 26.8 C 14.5 km/h
800 09-05-2021 18:35:00 26.6 C 8.31 g/m*3 26.6 C 17.7 km/h
Sensor: Nr:Datum:Temp:Abs-Feuchte:Windchill:Wind:
Aussen-T/F 801 09-05-2021 18:40:00 26.4 C 8.21 g/m*3 26.4 C 9.7 km/h
802 09-05-2021 18:45:00 26.3 C 7.92 g/m*3 26.3 C 17.7 km/h
803 09-05-2021 18:50:00 26.3 C 7.67 g/m*3 26.3 C 25.7 km/h
804 09-05-2021 18:55:00 26.2 C 7.63 g/m*3 26.2 C 16.1 km/h
805 09-05-2021 19:00:00 26.1 C 7.59 g/m*3 26.1 C 16.1 km/h
806 09-05-2021 19:05:00 26.1 C 7.83 g/m*3 26.1 C 19.3 km/h
807 09-05-2021 19:10:00 25.9 C 7.51 g/m*3 25.9 C 11.3 km/h
808 09-05-2021 19:15:00 25.8 C 7.7 g/m*3 25.8 C 12.9 km/h
809 09-05-2021 19:20:00 25.8 C 7.94 g/m*3 25.8 C 9.7 km/h
810 09-05-2021 19:25:00 25.7 C 8.14 g/m*3 25.7 C 14.5 km/h
811 09-05-2021 19:30:00 25.6 C 7.62 g/m*3 25.6 C 11.3 km/h
812 09-05-2021 19:35:00 25.6 C 7.62 g/m*3 25.6 C 11.3 km/h
813 09-05-2021 19:40:00 25.5 C 8.05 g/m*3 25.5 C 9.7 km/h
814 09-05-2021 19:45:00 25.3 C 8.66 g/m*3 25.3 C 6.4 km/h
815 09-05-2021 19:50:00 25.2 C 8.61 g/m*3 25.2 C 9.7 km/h
816 09-05-2021 19:55:00 25 C 8.75 g/m*3 25 C 6.4 km/h
817 09-05-2021 20:00:00 24.8 C 8.88 g/m*3 24.8 C 3.2 km/h
818 09-05-2021 20:05:00 24.4 C 8.68 g/m*3 24.4 C 6.4 km/h
819 09-05-2021 20:10:00 24.1 C 9.41 g/m*3 24.1 C 3.2 km/h
820 09-05-2021 20:15:00 23.8 C 8.82 g/m*3 23.8 C 1.6 km/h
821 09-05-2021 20:20:00 23.4 C 9.25 g/m*3 23.4 C 3.2 km/h
822 09-05-2021 20:25:00 23.1 C 9.1 g/m*3 23.1 C 6.4 km/h
823 09-05-2021 20:30:00 22.9 C 9.4 g/m*3 22.9 C 9.7 km/h
824 09-05-2021 20:35:00 22.8 C 9.14 g/m*3 22.8 C 6.4 km/h
825 09-05-2021 20:40:00 22.7 C 9.29 g/m*3 22.7 C 4.8 km/h
Sensor: Nr:Datum:Temp:Abs-Feuchte:Windchill:Wind:
Aussen-T/F 826 09-05-2021 20:45:00 22.6 C 9.64 g/m*3 22.6 C 4.8 km/h
827 09-05-2021 20:50:00 22.3 C 9.08 g/m*3 22.3 C 4.8 km/h
828 09-05-2021 20:55:00 22 C 9.7 g/m*3 22 C 4.8 km/h
829 09-05-2021 21:00:00 21.8 C 9.78 g/m*3 21.8 C 4.8 km/h
830 09-05-2021 21:05:00 21.5 C 9.81 g/m*3 21.5 C 4.8 km/h
831 09-05-2021 21:10:00 21.3 C 9.88 g/m*3 21.3 C 3.2 km/h
832 09-05-2021 21:15:00 21 C 9.89 g/m*3 21 C 6.4 km/h
833 09-05-2021 21:20:00 20.7 C 9.72 g/m*3 20.7 C 3.2 km/h
834 09-05-2021 21:25:00 20.6 C 9.66 g/m*3 20.6 C 1.6 km/h
835 09-05-2021 21:30:00 20.4 C 9.91 g/m*3 20.4 C 4.8 km/h
836 09-05-2021 21:35:00 20.3 C 9.5 g/m*3 20.3 C 6.4 km/h
837 09-05-2021 21:40:00 20.3 C 9.5 g/m*3 20.3 C 4.8 km/h
838 09-05-2021 21:45:00 20.3 C 9.85 g/m*3 20.3 C 4.8 km/h
839 09-05-2021 21:50:00 20.3 C 9.67 g/m*3 20.3 C 8.1 km/h
840 09-05-2021 21:55:00 20.3 C 9.67 g/m*3 20.3 C 4.8 km/h
841 09-05-2021 22:00:00 20.2 C 9.62 g/m*3 20.2 C 1.6 km/h
842 09-05-2021 22:05:00 20.2 C 9.79 g/m*3 20.2 C 3.2 km/h
843 09-05-2021 22:10:00 20.1 C 9.91 g/m*3 20.1 C 1.6 km/h
844 09-05-2021 22:15:00 20 C 10.02 g/m*3 20 C 4.8 km/h
845 09-05-2021 22:20:00 19.8 C 9.91 g/m*3 19.8 C 1.6 km/h
846 09-05-2021 22:25:00 19.6 C 9.96 g/m*3 19.6 C 4.8 km/h
847 09-05-2021 22:30:00 19.3 C 9.95 g/m*3 19.3 C 3.2 km/h
848 09-05-2021 22:35:00 19.1 C 9.84 g/m*3 19.1 C 4.8 km/h
849 09-05-2021 22:40:00 18.9 C 9.88 g/m*3 18.9 C 4.8 km/h
850 09-05-2021 22:45:00 18.7 C 10.09 g/m*3 18.7 C 3.2 km/h
Sensor: Nr:Datum:Temp:Abs-Feuchte:Windchill:Wind:
Aussen-T/F 851 09-05-2021 22:50:00 18.6 C 10.03 g/m*3 18.6 C 4.8 km/h
852 09-05-2021 22:55:00 18.6 C 10.03 g/m*3 18.6 C 3.2 km/h
853 09-05-2021 23:00:00 18.5 C 9.81 g/m*3 18.5 C 3.2 km/h
854 09-05-2021 23:05:00 18.6 C 10.03 g/m*3 18.6 C 3.2 km/h
855 09-05-2021 23:10:00 18.6 C 9.71 g/m*3 18.6 C 4.8 km/h
856 09-05-2021 23:15:00 18.7 C 9.93 g/m*3 18.7 C 4.8 km/h
857 09-05-2021 23:20:00 18.7 C 9.93 g/m*3 18.7 C 1.6 km/h
858 09-05-2021 23:25:00 18.8 C 9.82 g/m*3 18.8 C 3.2 km/h
859 09-05-2021 23:30:00 18.9 C 9.88 g/m*3 18.9 C 3.2 km/h
860 09-05-2021 23:35:00 19.1 C 9.84 g/m*3 19.1 C 6.4 km/h
861 09-05-2021 23:40:00 19.2 C 9.89 g/m*3 19.2 C 6.4 km/h
862 09-05-2021 23:45:00 19.3 C 9.79 g/m*3 19.3 C 4.8 km/h
863 09-05-2021 23:50:00 19.4 C 10.01 g/m*3 19.4 C 3.2 km/h
864 09-05-2021 23:55:00 19.5 C 9.9 g/m*3 19.5 C 3.2 km/h

Legende:
   Min
   Max


Maximal/Minimal-Werte vom 23.02.2003 - 23.04.2020

Sensor Min Max Avg
Temp
(Aussen-T/F)
-16.4 °C
20-12-2009  01:30:01
40.4 °C
25-07-2019  16:20:00
11.1 °C

Die Daten stammen von einer Davis Vantage Pro 2 Wetter-Station und werden unter Linux mit der Software wview2wettercgi und aufbereitet. Alle Angaben erfolgen ohne Gewähr für ihre Vollständigkeit oder Richtigkeit.
Kontakt: Rainer Krienke krienke@uni-koblenz.de . Meine Webseiten an der Uni Koblenz oder privat.
Version: $Revision: 0.78 $